Kezdőlap
METAR-TAF:

METAR-TAF

Repülőterek :

Tlemcen, Algéria

földrajzi szélesség: 35-01N, földrajzi hosszúság: 001-28W, magasság: 247 m

Jelenlegi meteorológiai megfigyelések

A jelentés 20 perccel ezelõtt készült, 00:00 UTC
Szélcsend
Hőmérséklet 20°C
Páratartalom 49%
Légköri nyomás 1013 hPa
Látótávolság 10 km, vagy több
felhőtlen 1500 m magasságban, és nincs gomolyfelhõ

METAR: DAON 180000Z 00000KT CAVOK 20/09 Q1013

Idő: 01:20 (00:20 UTC)

Előrejelzés

A jelentés 1 órával és 20 perccel ezelõtt készült, 23:00 UTC
Az előrejelzés 18-én 00 óra UTC és 18-én 24 óra UTC között érvényes
Különbözõ irányokból fújó szél 2 kt
Látótávolság 10 km, vagy több
felhőtlen 1500 m magasságban, és nincs gomolyfelhõ
18-én 12 óra UTC és 18-én 15 óra UTC között fokozatosan kialakuló
Észak-északkeleti szél 12 kt

TAF: DAON 172300Z 1800/1824 VRB02KT CAVOK BECMG 1812/1815 02012KT

Meteorológiai megfigyelések és előrejelzések több, mint 4000 repülőtéren (METAR és TAF jelentéseket).

A térképen piros és sárga pontok jelzik az elérhető meteorológiai állomásokat.

Mozgassa az egeret a pont fölött, hogy megjelenjen az állomás neve.

Azután kattintson az időjárási megfigyelések és előrejelzések megtekintéséhez.

A térkép megváltoztatása: kattintson a fekete keresztel jelölt zöld gombra ráközelítéshez, a vonallal jelölt zöld gombra távolításhoz, vagy a zöld nyilakra a szomszédos térképek eléréséhez.


METAR-TAF: